createdAt,value
2016-12-12T00:00:46.295Z,1009.01
2016-12-12T00:01:46.224Z,1008.99
2016-12-12T00:02:46.379Z,1009
2016-12-12T00:03:46.353Z,1009.03
2016-12-12T00:04:46.285Z,1009.06
2016-12-12T00:05:46.700Z,1009.01
2016-12-12T00:06:46.276Z,1009.04
2016-12-12T00:07:46.314Z,1009
2016-12-12T00:08:46.230Z,1009.03
2016-12-12T00:09:46.295Z,1009.01
2016-12-12T00:10:46.842Z,1009.03
2016-12-12T00:11:46.541Z,1009.02
2016-12-12T00:12:46.645Z,1009.03
2016-12-12T00:13:46.340Z,1009.01
2016-12-12T00:14:46.319Z,1009.02
2016-12-12T00:15:46.226Z,1009.07
2016-12-12T00:16:46.747Z,1009.11
2016-12-12T00:17:46.678Z,1009.09
2016-12-12T00:18:46.277Z,1009.09
2016-12-12T00:19:46.302Z,1009.11
2016-12-12T00:20:46.502Z,1009.06
2016-12-12T00:21:46.267Z,1009.13
2016-12-12T00:22:46.285Z,1009.12
2016-12-12T00:23:46.664Z,1009.14
2016-12-12T00:24:46.689Z,1009.12
2016-12-12T00:25:46.266Z,1009.16
2016-12-12T00:26:46.506Z,1009.14
2016-12-12T00:27:46.500Z,1009.13
2016-12-12T00:28:46.429Z,1009.14
2016-12-12T00:29:46.554Z,1009.15
2016-12-12T00:30:46.612Z,1009.14
2016-12-12T00:31:46.589Z,1009.11
2016-12-12T00:32:47.187Z,1009.13
2016-12-12T00:33:46.693Z,1009.16
2016-12-12T00:34:46.434Z,1009.13
2016-12-12T00:35:46.941Z,1009.13
2016-12-12T00:36:46.544Z,1009.12
2016-12-12T00:37:46.788Z,1009.16
2016-12-12T00:38:46.935Z,1009.13
2016-12-12T00:39:46.768Z,1009.19
2016-12-12T00:40:46.708Z,1009.19
2016-12-12T00:41:46.944Z,1009.19
2016-12-12T00:42:46.841Z,1009.19
2016-12-12T00:43:47.047Z,1009.25
2016-12-12T00:44:46.688Z,1009.26
2016-12-12T00:45:46.700Z,1009.27
2016-12-12T00:46:47.054Z,1009.29
2016-12-12T00:47:46.654Z,1009.31
2016-12-12T00:48:46.829Z,1009.27
2016-12-12T00:49:46.917Z,1009.35
2016-12-12T00:50:46.705Z,1009.33
2016-12-12T00:51:46.834Z,1009.35
2016-12-12T00:52:46.877Z,1009.36
2016-12-12T00:53:47.359Z,1009.36
2016-12-12T00:54:46.902Z,1009.37
2016-12-12T00:55:46.974Z,1009.39
2016-12-12T00:56:46.920Z,1009.37
2016-12-12T00:57:46.933Z,1009.39
2016-12-12T00:58:46.893Z,1009.4
2016-12-12T00:59:46.954Z,1009.49
2016-12-12T01:00:46.900Z,1009.46
2016-12-12T01:01:47.057Z,1009.46
2016-12-12T01:02:47.016Z,1009.48
2016-12-12T01:03:47.117Z,1009.43
2016-12-12T01:04:47.244Z,1009.45
2016-12-12T01:05:47.182Z,1009.47
2016-12-12T01:06:47.786Z,1009.48
2016-12-12T01:07:47.191Z,1009.54
2016-12-12T01:08:47.071Z,1009.51
2016-12-12T01:09:47.168Z,1009.5
2016-12-12T01:10:47.074Z,1009.52
2016-12-12T01:11:47.372Z,1009.49
2016-12-12T01:12:47.063Z,1009.5
2016-12-12T01:13:47.406Z,1009.53
2016-12-12T01:14:47.164Z,1009.56
2016-12-12T01:15:47.602Z,1009.56
2016-12-12T01:16:47.185Z,1009.57
2016-12-12T01:17:47.398Z,1009.58
2016-12-12T01:18:47.131Z,1009.59
2016-12-12T01:19:47.415Z,1009.58
2016-12-12T01:20:47.306Z,1009.58
2016-12-12T01:21:47.156Z,1009.56
2016-12-12T01:22:47.510Z,1009.55
2016-12-12T01:23:47.485Z,1009.55
2016-12-12T01:24:47.325Z,1009.6
2016-12-12T01:25:47.650Z,1009.55
2016-12-12T01:26:47.415Z,1009.57
2016-12-12T01:27:47.592Z,1009.54
2016-12-12T01:28:47.600Z,1009.54
2016-12-12T01:29:47.515Z,1009.55
2016-12-12T01:30:47.300Z,1009.58
2016-12-12T01:31:47.512Z,1009.55
2016-12-12T01:32:47.425Z,1009.53
2016-12-12T01:33:47.476Z,1009.55
2016-12-12T01:34:47.537Z,1009.52
2016-12-12T01:35:47.592Z,1009.51
2016-12-12T01:36:47.547Z,1009.53
2016-12-12T01:37:47.528Z,1009.57
2016-12-12T01:38:47.481Z,1009.59
2016-12-12T01:39:47.692Z,1009.64
2016-12-12T01:40:47.526Z,1009.68
2016-12-12T01:41:47.485Z,1009.71
2016-12-12T01:42:47.605Z,1009.64
2016-12-12T01:43:47.803Z,1009.66
2016-12-12T01:44:48.028Z,1009.68
2016-12-12T01:45:47.652Z,1009.65
2016-12-12T01:46:47.547Z,1009.66
2016-12-12T01:47:47.962Z,1009.68
2016-12-12T01:48:47.605Z,1009.71
2016-12-12T01:49:47.775Z,1009.73
2016-12-12T01:50:47.771Z,1009.69
2016-12-12T01:51:47.941Z,1009.71
2016-12-12T01:52:47.730Z,1009.73
2016-12-12T01:53:47.717Z,1009.73
2016-12-12T01:54:48.008Z,1009.74
2016-12-12T01:55:47.858Z,1009.74
2016-12-12T01:56:48.476Z,1009.75
2016-12-12T01:57:47.785Z,1009.75
2016-12-12T01:58:47.836Z,1009.73
2016-12-12T01:59:47.855Z,1009.79
2016-12-12T02:00:47.916Z,1009.82
2016-12-12T02:01:47.747Z,1009.84
2016-12-12T02:02:48.085Z,1009.84
2016-12-12T02:03:48.042Z,1009.78
2016-12-12T02:04:48.096Z,1009.8
2016-12-12T02:05:48.003Z,1009.81
2016-12-12T02:06:48.257Z,1009.81
2016-12-12T02:07:48.189Z,1009.83
2016-12-12T02:08:48.228Z,1009.78
2016-12-12T02:09:48.257Z,1009.8
2016-12-12T02:10:48.058Z,1009.78
2016-12-12T02:11:48.059Z,1009.81
2016-12-12T02:12:48.026Z,1009.81
2016-12-12T02:13:48.120Z,1009.79
2016-12-12T02:14:47.983Z,1009.78
2016-12-12T02:15:48.143Z,1009.78
2016-12-12T02:16:48.168Z,1009.83
2016-12-12T02:17:48.127Z,1009.82
2016-12-12T02:18:48.196Z,1009.78
2016-12-12T02:19:48.322Z,1009.76
2016-12-12T02:20:48.221Z,1009.75
2016-12-12T02:21:48.333Z,1009.75
2016-12-12T02:22:48.213Z,1009.69
2016-12-12T02:23:48.408Z,1009.75
2016-12-12T02:24:48.351Z,1009.78
2016-12-12T02:25:48.259Z,1009.73
2016-12-12T02:26:48.371Z,1009.77
2016-12-12T02:27:48.241Z,1009.81
2016-12-12T02:28:48.224Z,1009.8
2016-12-12T02:29:48.190Z,1009.78
2016-12-12T02:30:48.367Z,1009.82
2016-12-12T02:31:48.255Z,1009.75
2016-12-12T02:32:48.387Z,1009.79
2016-12-12T02:33:48.463Z,1009.79
2016-12-12T02:34:48.321Z,1009.83
2016-12-12T02:35:48.563Z,1009.81
2016-12-12T02:36:48.443Z,1009.88
2016-12-12T02:37:48.349Z,1009.85
2016-12-12T02:38:48.722Z,1009.92
2016-12-12T02:39:48.420Z,1009.92
2016-12-12T02:40:48.564Z,1009.89
2016-12-12T02:41:48.540Z,1009.92
2016-12-12T02:42:48.721Z,1009.93
2016-12-12T02:43:48.526Z,1009.85
2016-12-12T02:44:48.407Z,1009.87
2016-12-12T02:45:48.539Z,1009.93
2016-12-12T02:46:48.557Z,1009.89
2016-12-12T02:47:48.710Z,1009.96
2016-12-12T02:48:48.681Z,1009.94
2016-12-12T02:49:48.586Z,1009.94
2016-12-12T02:50:48.567Z,1009.96
2016-12-12T02:51:48.642Z,1009.93
2016-12-12T02:52:48.664Z,1009.92
2016-12-12T02:53:48.676Z,1009.89
2016-12-12T02:54:48.849Z,1009.91
2016-12-12T02:55:48.812Z,1009.94
2016-12-12T02:56:48.780Z,1009.99
2016-12-12T02:57:49.056Z,1009.94
2016-12-12T02:58:48.851Z,1009.99
2016-12-12T02:59:48.788Z,1009.92
2016-12-12T03:00:48.692Z,1009.96
2016-12-12T03:01:48.774Z,1009.94
2016-12-12T03:02:48.837Z,1009.97
2016-12-12T03:03:48.829Z,1009.99
2016-12-12T03:04:48.877Z,1009.99
2016-12-12T03:05:48.794Z,1010.01
2016-12-12T03:06:48.977Z,1009.98
2016-12-12T03:07:48.793Z,1010
2016-12-12T03:08:48.987Z,1009.95
2016-12-12T03:09:48.983Z,1010.03
2016-12-12T03:10:48.943Z,1010.05
2016-12-12T03:11:49.005Z,1010.02
2016-12-12T03:12:48.987Z,1010.05
2016-12-12T03:13:48.851Z,1010.03
2016-12-12T03:14:49.104Z,1010.01
2016-12-12T03:15:49.199Z,1010.1
2016-12-12T03:16:49.271Z,1010.08
2016-12-12T03:17:49.176Z,1010.06
2016-12-12T03:18:48.946Z,1010.02
2016-12-12T03:19:48.984Z,1010.09
2016-12-12T03:20:49.222Z,1010.07
2016-12-12T03:21:49.057Z,1010.16
2016-12-12T03:22:49.230Z,1010.13
2016-12-12T03:23:49.209Z,1010.14
2016-12-12T03:24:49.223Z,1010.17
2016-12-12T03:25:49.523Z,1010.17
2016-12-12T03:26:49.164Z,1010.16
2016-12-12T03:27:49.354Z,1010.21
2016-12-12T03:28:49.357Z,1010.18
2016-12-12T03:29:49.420Z,1010.18
2016-12-12T03:30:49.708Z,1010.19
2016-12-12T03:31:49.617Z,1010.13
2016-12-12T03:32:49.259Z,1010.13
2016-12-12T03:33:49.307Z,1010.18
2016-12-12T03:34:49.257Z,1010.16
2016-12-12T03:35:49.206Z,1010.27
2016-12-12T03:36:49.318Z,1010.23
2016-12-12T03:37:49.470Z,1010.26
2016-12-12T03:38:49.315Z,1010.23
2016-12-12T03:39:49.531Z,1010.22
2016-12-12T03:40:49.400Z,1010.21
2016-12-12T03:41:49.614Z,1010.23
2016-12-12T03:42:49.259Z,1010.22
2016-12-12T03:43:49.661Z,1010.26
2016-12-12T03:44:49.552Z,1010.23
2016-12-12T03:45:49.410Z,1010.28
2016-12-12T03:46:49.402Z,1010.3
2016-12-12T03:47:49.735Z,1010.34
2016-12-12T03:48:50.013Z,1010.27
2016-12-12T03:49:49.896Z,1010.3
2016-12-12T03:50:49.588Z,1010.32
2016-12-12T03:51:49.511Z,1010.36
2016-12-12T03:52:49.685Z,1010.37
2016-12-12T03:53:49.902Z,1010.33
2016-12-12T03:54:49.460Z,1010.36
2016-12-12T03:55:49.636Z,1010.34
2016-12-12T03:56:49.537Z,1010.4
2016-12-12T03:57:49.833Z,1010.38
2016-12-12T03:58:49.650Z,1010.36
2016-12-12T03:59:49.797Z,1010.34
2016-12-12T04:00:49.823Z,1010.35
2016-12-12T04:01:49.679Z,1010.32
2016-12-12T04:02:49.791Z,1010.34
2016-12-12T04:03:49.803Z,1010.37
2016-12-12T04:04:49.712Z,1010.35
2016-12-12T04:05:49.834Z,1010.33
2016-12-12T04:06:49.721Z,1010.36
2016-12-12T04:07:49.891Z,1010.32
2016-12-12T04:08:50.258Z,1010.33
2016-12-12T04:09:49.940Z,1010.35
2016-12-12T04:10:49.912Z,1010.34
2016-12-12T04:11:49.945Z,1010.36
2016-12-12T04:12:50.025Z,1010.39
2016-12-12T04:13:49.767Z,1010.33
2016-12-12T04:14:49.924Z,1010.4
2016-12-12T04:15:49.975Z,1010.41
2016-12-12T04:16:49.916Z,1010.46
2016-12-12T04:17:49.831Z,1010.38
2016-12-12T04:18:49.956Z,1010.47
2016-12-12T04:19:50.225Z,1010.46
2016-12-12T04:20:50.552Z,1010.43
2016-12-12T04:21:50.114Z,1010.44
2016-12-12T04:22:50.109Z,1010.36
2016-12-12T04:23:49.990Z,1010.43
2016-12-12T04:24:50.125Z,1010.42
2016-12-12T04:25:50.151Z,1010.44
2016-12-12T04:26:50.011Z,1010.4
2016-12-12T04:27:50.156Z,1010.5
2016-12-12T04:28:50.121Z,1010.49
2016-12-12T04:29:50.135Z,1010.48
2016-12-12T04:30:50.137Z,1010.47
2016-12-12T04:31:50.330Z,1010.47
2016-12-12T04:32:50.278Z,1010.45
2016-12-12T04:33:50.126Z,1010.48
2016-12-12T04:34:50.091Z,1010.52
2016-12-12T04:35:50.120Z,1010.56
2016-12-12T04:36:50.239Z,1010.47
2016-12-12T04:37:50.242Z,1010.51
2016-12-12T04:38:50.231Z,1010.6
2016-12-12T04:39:50.286Z,1010.59
2016-12-12T04:40:50.610Z,1010.6
2016-12-12T04:41:50.504Z,1010.58
2016-12-12T04:42:50.603Z,1010.62
2016-12-12T04:43:50.234Z,1010.65
2016-12-12T04:44:50.334Z,1010.61
2016-12-12T04:45:50.365Z,1010.66
2016-12-12T04:46:50.350Z,1010.69
2016-12-12T04:47:50.648Z,1010.68
2016-12-12T04:48:50.340Z,1010.67
2016-12-12T04:49:50.425Z,1010.7
2016-12-12T04:50:50.446Z,1010.66
2016-12-12T04:51:50.642Z,1010.69
2016-12-12T04:52:50.561Z,1010.7
2016-12-12T04:53:50.591Z,1010.67
2016-12-12T04:54:50.608Z,1010.71
2016-12-12T04:55:50.418Z,1010.74
2016-12-12T04:56:50.712Z,1010.67
2016-12-12T04:57:50.727Z,1010.73
2016-12-12T04:58:50.523Z,1010.69
2016-12-12T04:59:50.545Z,1010.63
2016-12-12T05:00:50.748Z,1010.68
2016-12-12T05:01:50.740Z,1010.69
2016-12-12T05:02:50.639Z,1010.65
2016-12-12T05:03:50.691Z,1010.7
2016-12-12T05:04:50.800Z,1010.7
2016-12-12T05:05:50.720Z,1010.68
2016-12-12T05:06:50.638Z,1010.71
2016-12-12T05:07:50.710Z,1010.71
2016-12-12T05:08:50.863Z,1010.77
2016-12-12T05:09:51.297Z,1010.77
2016-12-12T05:10:51.642Z,1010.8
2016-12-12T05:11:51.136Z,1010.8
2016-12-12T05:12:51.466Z,1010.77
2016-12-12T05:13:51.221Z,1010.76
2016-12-12T05:14:51.414Z,1010.76
2016-12-12T05:15:51.768Z,1010.74
2016-12-12T05:16:51.340Z,1010.79
2016-12-12T05:17:51.211Z,1010.8
2016-12-12T05:18:51.298Z,1010.83
2016-12-12T05:19:51.221Z,1010.82
2016-12-12T05:20:51.341Z,1010.79
2016-12-12T05:21:51.327Z,1010.8
2016-12-12T05:22:51.425Z,1010.79
2016-12-12T05:23:51.973Z,1010.76
2016-12-12T05:24:51.311Z,1010.75
2016-12-12T05:25:51.758Z,1010.68
2016-12-12T05:26:51.510Z,1010.65
2016-12-12T05:27:51.507Z,1010.63
2016-12-12T05:28:51.296Z,1010.59
2016-12-12T05:29:51.794Z,1010.62
2016-12-12T05:30:51.639Z,1010.64
2016-12-12T05:31:51.282Z,1010.62
2016-12-12T05:32:52.061Z,1010.61
2016-12-12T05:33:51.371Z,1010.68
2016-12-12T05:34:51.921Z,1010.61
2016-12-12T05:35:51.398Z,1010.66
2016-12-12T05:36:51.982Z,1010.72
2016-12-12T05:37:51.696Z,1010.74
2016-12-12T05:38:51.234Z,1010.76
2016-12-12T05:39:51.655Z,1010.78
2016-12-12T05:40:51.748Z,1010.79
2016-12-12T05:41:51.434Z,1010.84
2016-12-12T05:42:51.653Z,1010.87
2016-12-12T05:43:51.437Z,1010.87
2016-12-12T05:44:51.556Z,1010.87
2016-12-12T05:45:51.394Z,1010.87
2016-12-12T05:46:51.624Z,1010.89
2016-12-12T05:47:51.666Z,1010.9
2016-12-12T05:48:51.328Z,1010.93
2016-12-12T05:49:51.658Z,1010.95
2016-12-12T05:50:51.605Z,1010.93
2016-12-12T05:51:51.591Z,1010.94
2016-12-12T05:52:51.567Z,1010.93
2016-12-12T05:53:51.821Z,1010.94
2016-12-12T05:54:51.695Z,1010.97
2016-12-12T05:55:51.611Z,1010.93
2016-12-12T05:56:52.676Z,1010.93
2016-12-12T05:57:51.496Z,1010.94
2016-12-12T05:58:51.779Z,1010.96
2016-12-12T05:59:52.146Z,1011.02
2016-12-12T06:00:51.569Z,1011.05
2016-12-12T06:01:52.150Z,1011.09
2016-12-12T06:02:51.928Z,1011.11
2016-12-12T06:03:51.733Z,1011.08
2016-12-12T06:04:52.266Z,1011.12
2016-12-12T06:05:51.834Z,1011.16
2016-12-12T06:06:51.833Z,1011.22
2016-12-12T06:07:51.655Z,1011.21
2016-12-12T06:08:51.830Z,1011.21
2016-12-12T06:09:51.845Z,1011.23
2016-12-12T06:10:51.648Z,1011.24
2016-12-12T06:11:51.745Z,1011.22
2016-12-12T06:12:51.911Z,1011.2
2016-12-12T06:13:51.983Z,1011.28
2016-12-12T06:14:52.635Z,1011.31
2016-12-12T06:15:52.117Z,1011.31
2016-12-12T06:16:52.349Z,1011.36
2016-12-12T06:17:51.668Z,1011.34
2016-12-12T06:18:52.026Z,1011.34
2016-12-12T06:19:52.108Z,1011.37
2016-12-12T06:20:52.180Z,1011.39
2016-12-12T06:21:52.457Z,1011.39
2016-12-12T06:22:52.246Z,1011.42
2016-12-12T06:23:52.611Z,1011.41
2016-12-12T06:24:52.150Z,1011.37
2016-12-12T06:25:52.003Z,1011.35
2016-12-12T06:26:52.298Z,1011.38
2016-12-12T06:27:52.450Z,1011.41
2016-12-12T06:28:51.983Z,1011.4
2016-12-12T06:29:52.726Z,1011.42
2016-12-12T06:30:52.276Z,1011.41
2016-12-12T06:31:52.220Z,1011.45
2016-12-12T06:32:52.138Z,1011.46
2016-12-12T06:33:52.539Z,1011.5
2016-12-12T06:34:52.154Z,1011.5
2016-12-12T06:35:52.424Z,1011.49
2016-12-12T06:36:52.475Z,1011.58
2016-12-12T06:37:52.513Z,1011.54
2016-12-12T06:38:52.182Z,1011.59
2016-12-12T06:39:52.169Z,1011.62
2016-12-12T06:40:52.301Z,1011.61
2016-12-12T06:41:52.430Z,1011.64
2016-12-12T06:42:52.415Z,1011.65
2016-12-12T06:43:52.226Z,1011.67
2016-12-12T06:44:52.434Z,1011.7
2016-12-12T06:45:52.408Z,1011.66
2016-12-12T06:46:52.337Z,1011.71
2016-12-12T06:47:52.251Z,1011.73
2016-12-12T06:48:52.143Z,1011.77
2016-12-12T06:50:52.341Z,1011.81
2016-12-12T06:51:52.362Z,1011.83
2016-12-12T06:52:52.265Z,1011.86
2016-12-12T06:53:52.319Z,1011.9
2016-12-12T06:54:52.341Z,1011.88
2016-12-12T06:55:52.278Z,1011.91
2016-12-12T06:56:52.558Z,1011.98
2016-12-12T06:57:52.310Z,1012.02
2016-12-12T06:58:52.363Z,1011.97
2016-12-12T06:59:52.423Z,1011.99
2016-12-12T07:00:52.805Z,1012.03
2016-12-12T07:01:52.482Z,1012
2016-12-12T07:02:52.358Z,1012.01
2016-12-12T07:03:52.417Z,1012.04
2016-12-12T07:04:52.604Z,1012.07
2016-12-12T07:05:52.438Z,1012.06
2016-12-12T07:06:52.701Z,1012.05
2016-12-12T07:07:52.644Z,1012.09
2016-12-12T07:08:52.612Z,1012.09
2016-12-12T07:09:52.727Z,1012.11
2016-12-12T07:10:52.841Z,1012.14
2016-12-12T07:11:52.617Z,1012.11
2016-12-12T07:12:52.668Z,1012.16
2016-12-12T07:13:53.418Z,1012.16
2016-12-12T07:14:53.239Z,1012.18
2016-12-12T07:15:52.746Z,1012.21
2016-12-12T07:16:53.171Z,1012.22
2016-12-12T07:17:53.204Z,1012.23
2016-12-12T07:18:52.608Z,1012.28
2016-12-12T07:20:53.223Z,1012.32
2016-12-12T07:21:52.825Z,1012.25
2016-12-12T07:22:52.812Z,1012.3
2016-12-12T07:23:52.813Z,1012.32
2016-12-12T07:24:52.935Z,1012.3
2016-12-12T07:25:53.022Z,1012.32
2016-12-12T07:27:52.790Z,1012.29
2016-12-12T07:28:53.017Z,1012.32
2016-12-12T07:29:53.084Z,1012.31
2016-12-12T07:30:53.421Z,1012.32
2016-12-12T07:31:53.089Z,1012.26
2016-12-12T07:32:53.668Z,1012.25
2016-12-12T07:33:53.158Z,1012.24
2016-12-12T07:34:54.450Z,1012.27
2016-12-12T07:35:53.439Z,1012.26
2016-12-12T07:36:53.613Z,1012.25
2016-12-12T07:37:53.264Z,1012.28
2016-12-12T07:38:53.208Z,1012.29
2016-12-12T07:39:53.318Z,1012.27
2016-12-12T07:40:53.097Z,1012.26
2016-12-12T07:41:53.212Z,1012.34
2016-12-12T07:42:53.008Z,1012.32
2016-12-12T07:43:53.127Z,1012.31
2016-12-12T07:44:53.296Z,1012.35
2016-12-12T07:45:53.586Z,1012.35
2016-12-12T07:46:53.567Z,1012.35
2016-12-12T07:47:53.600Z,1012.37
2016-12-12T07:48:53.279Z,1012.37
2016-12-12T07:49:53.187Z,1012.39
2016-12-12T07:50:53.587Z,1012.39
2016-12-12T07:51:54.200Z,1012.38
2016-12-12T07:52:53.487Z,1012.41
2016-12-12T07:53:54.891Z,1012.46
2016-12-12T07:54:53.514Z,1012.49
2016-12-12T07:55:53.243Z,1012.49
2016-12-12T07:56:53.777Z,1012.53
2016-12-12T07:57:53.432Z,1012.54
2016-12-12T07:58:53.438Z,1012.52
2016-12-12T07:59:53.519Z,1012.53
2016-12-12T08:00:53.412Z,1012.53
2016-12-12T08:01:53.455Z,1012.52
2016-12-12T08:02:53.327Z,1012.51
2016-12-12T08:03:54.031Z,1012.54
2016-12-12T08:04:53.430Z,1012.54
2016-12-12T08:05:53.763Z,1012.58
2016-12-12T08:06:53.794Z,1012.55
2016-12-12T08:07:53.412Z,1012.52
2016-12-12T08:08:53.623Z,1012.57
2016-12-12T08:09:54.433Z,1012.56
2016-12-12T08:10:53.671Z,1012.59
2016-12-12T08:11:53.586Z,1012.58
2016-12-12T08:12:53.842Z,1012.6
2016-12-12T08:13:53.459Z,1012.67
2016-12-12T08:14:53.794Z,1012.65
2016-12-12T08:15:53.737Z,1012.67
2016-12-12T08:16:53.529Z,1012.71
2016-12-12T08:17:53.954Z,1012.7
2016-12-12T08:18:54.303Z,1012.75
2016-12-12T08:19:53.959Z,1012.76
2016-12-12T08:20:53.555Z,1012.79
2016-12-12T08:21:53.775Z,1012.82
2016-12-12T08:22:53.807Z,1012.78
2016-12-12T08:23:54.324Z,1012.82
2016-12-12T08:24:53.943Z,1012.8
2016-12-12T08:25:53.773Z,1012.85
2016-12-12T08:26:53.983Z,1012.84
2016-12-12T08:27:53.681Z,1012.9
2016-12-12T08:28:53.739Z,1012.9
2016-12-12T08:29:53.964Z,1012.92
2016-12-12T08:30:53.839Z,1012.93
2016-12-12T08:31:53.959Z,1012.93
2016-12-12T08:32:53.920Z,1012.97
2016-12-12T08:33:54.418Z,1012.94
2016-12-12T08:34:53.765Z,1012.97
2016-12-12T08:35:53.878Z,1013
2016-12-12T08:36:53.768Z,1012.98
2016-12-12T08:37:54.109Z,1013.01
2016-12-12T08:38:53.814Z,1013.01
2016-12-12T08:39:54.233Z,1013
2016-12-12T08:40:54.234Z,1013.05
2016-12-12T08:41:54.015Z,1013.03
2016-12-12T08:42:54.044Z,1013.04
2016-12-12T08:43:54.094Z,1013.05
2016-12-12T08:44:54.021Z,1013.07
2016-12-12T08:45:54.125Z,1013.13
2016-12-12T08:46:54.155Z,1013.14
2016-12-12T08:47:54.271Z,1013.15
2016-12-12T08:48:54.462Z,1013.18
2016-12-12T08:49:54.492Z,1013.23
2016-12-12T08:50:54.037Z,1013.31
2016-12-12T08:51:54.060Z,1013.33
2016-12-12T08:52:54.246Z,1013.34
2016-12-12T08:53:54.187Z,1013.34
2016-12-12T08:54:54.232Z,1013.36
2016-12-12T08:55:54.376Z,1013.4
2016-12-12T08:56:54.152Z,1013.35
2016-12-12T08:57:54.456Z,1013.38
2016-12-12T08:58:54.615Z,1013.35
2016-12-12T08:59:54.415Z,1013.37
2016-12-12T09:00:54.403Z,1013.35
2016-12-12T09:01:54.456Z,1013.36
2016-12-12T09:02:54.308Z,1013.41
2016-12-12T09:03:54.458Z,1013.42
2016-12-12T09:04:54.652Z,1013.43
2016-12-12T09:05:54.324Z,1013.46
2016-12-12T09:06:54.464Z,1013.47
2016-12-12T09:07:54.513Z,1013.48
2016-12-12T09:08:54.467Z,1013.54
2016-12-12T09:09:54.447Z,1013.55
2016-12-12T09:10:54.653Z,1013.6
2016-12-12T09:11:54.595Z,1013.65
2016-12-12T09:12:54.730Z,1013.58
2016-12-12T09:13:54.496Z,1013.58
2016-12-12T09:14:54.503Z,1013.6
2016-12-12T09:15:54.510Z,1013.62
2016-12-12T09:16:54.562Z,1013.62
2016-12-12T09:17:54.536Z,1013.6
2016-12-12T09:18:54.717Z,1013.65
2016-12-12T09:19:54.861Z,1013.63
2016-12-12T09:20:54.787Z,1013.64
2016-12-12T09:21:54.791Z,1013.64
2016-12-12T09:22:54.742Z,1013.62
2016-12-12T09:23:54.971Z,1013.66
2016-12-12T09:24:54.756Z,1013.7
2016-12-12T09:25:54.834Z,1013.69
2016-12-12T09:26:54.769Z,1013.69
2016-12-12T09:27:54.728Z,1013.69
2016-12-12T09:28:54.877Z,1013.76
2016-12-12T09:29:54.765Z,1013.72
2016-12-12T09:30:54.716Z,1013.73
2016-12-12T09:31:55.001Z,1013.77
2016-12-12T09:32:54.807Z,1013.77
2016-12-12T09:33:55.188Z,1013.74
2016-12-12T09:34:54.740Z,1013.75
2016-12-12T09:35:54.874Z,1013.78
2016-12-12T09:36:54.838Z,1013.77
2016-12-12T09:37:55.212Z,1013.8
2016-12-12T09:38:55.014Z,1013.87
2016-12-12T09:39:54.824Z,1013.87
2016-12-12T09:40:54.899Z,1013.85
2016-12-12T09:41:55.486Z,1013.85
2016-12-12T09:42:55.222Z,1013.88
2016-12-12T09:43:54.957Z,1013.85
2016-12-12T09:44:55.003Z,1013.93
2016-12-12T09:45:55.040Z,1013.9
2016-12-12T09:46:55.440Z,1013.93
2016-12-12T09:47:54.970Z,1013.94
2016-12-12T09:48:55.448Z,1013.88
2016-12-12T09:49:54.948Z,1013.91
2016-12-12T09:50:55.253Z,1013.9
2016-12-12T09:51:55.158Z,1013.94
2016-12-12T09:52:55.606Z,1013.91
2016-12-12T09:53:55.608Z,1013.94
2016-12-12T09:54:55.059Z,1013.95
2016-12-12T09:55:55.549Z,1013.91
2016-12-12T09:56:55.412Z,1013.92
2016-12-12T09:57:55.610Z,1013.96
2016-12-12T09:58:55.320Z,1013.94
2016-12-12T09:59:55.585Z,1013.97
2016-12-12T10:00:55.400Z,1013.98
2016-12-12T10:01:55.527Z,1013.97
2016-12-12T10:02:55.462Z,1014
2016-12-12T10:03:55.578Z,1014.05
2016-12-12T10:04:55.750Z,1014.04
2016-12-12T10:05:55.523Z,1014.03
2016-12-12T10:06:55.650Z,1014.09
2016-12-12T10:07:55.373Z,1014.1
2016-12-12T10:08:55.626Z,1014.04
2016-12-12T10:09:55.578Z,1014.07
2016-12-12T10:10:55.891Z,1014.06
2016-12-12T10:11:55.786Z,1014.04
2016-12-12T10:12:55.562Z,1014.06
2016-12-12T10:13:55.676Z,1014.03
2016-12-12T10:14:55.435Z,1013.98
2016-12-12T10:15:55.731Z,1014.01
2016-12-12T10:16:55.684Z,1014.02
2016-12-12T10:17:55.676Z,1014.02
2016-12-12T10:18:55.544Z,1013.94
2016-12-12T10:19:56.006Z,1013.97
2016-12-12T10:20:55.941Z,1013.92
2016-12-12T10:21:56.362Z,1014
2016-12-12T10:22:55.610Z,1014.01
2016-12-12T10:23:55.780Z,1014.01
2016-12-12T10:24:55.665Z,1014.04
2016-12-12T10:25:56.141Z,1014.03
2016-12-12T10:26:55.664Z,1014.03
2016-12-12T10:27:56.085Z,1014.07
2016-12-12T10:28:56.125Z,1013.99
2016-12-12T10:29:56.183Z,1013.96
2016-12-12T10:30:55.843Z,1013.98
2016-12-12T10:31:56.017Z,1013.99
2016-12-12T10:32:55.714Z,1014
2016-12-12T10:33:56.016Z,1013.98
2016-12-12T10:34:55.820Z,1013.96
2016-12-12T10:35:56.190Z,1013.98
2016-12-12T10:36:55.847Z,1013.95
2016-12-12T10:37:55.989Z,1013.99
2016-12-12T10:38:56.207Z,1014.03
2016-12-12T10:39:56.129Z,1014.05
2016-12-12T10:40:55.963Z,1014.15
2016-12-12T10:41:56.149Z,1014.13
2016-12-12T10:42:55.839Z,1014.1
2016-12-12T10:43:56.076Z,1014.17
2016-12-12T10:44:56.078Z,1014.14
2016-12-12T10:45:56.380Z,1014.15
2016-12-12T10:46:56.067Z,1014.18
2016-12-12T10:47:56.251Z,1014.14
2016-12-12T10:48:56.455Z,1014.12
2016-12-12T10:49:56.812Z,1014.12
2016-12-12T10:50:56.128Z,1014.08
2016-12-12T10:51:56.069Z,1014.13
2016-12-12T10:52:56.169Z,1014.17
2016-12-12T10:53:56.467Z,1014.13
2016-12-12T10:54:56.226Z,1014.18
2016-12-12T10:55:56.530Z,1014.15
2016-12-12T10:56:56.241Z,1014.12
2016-12-12T10:57:56.075Z,1014.08
2016-12-12T10:58:56.113Z,1014.1
2016-12-12T10:59:56.248Z,1014.14
2016-12-12T11:00:56.388Z,1014.12
2016-12-12T11:01:56.738Z,1014.15
2016-12-12T11:02:56.551Z,1014.14
2016-12-12T11:03:56.565Z,1014.2
2016-12-12T11:04:56.499Z,1014.13
2016-12-12T11:05:56.249Z,1014.15
2016-12-12T11:06:56.517Z,1014.17
2016-12-12T11:07:56.326Z,1014.15
2016-12-12T11:08:56.453Z,1014.18
2016-12-12T11:09:56.774Z,1014.19
2016-12-12T11:10:56.417Z,1014.21
2016-12-12T11:11:56.317Z,1014.15
2016-12-12T11:12:56.394Z,1014.18
2016-12-12T11:13:56.773Z,1014.18
2016-12-12T11:14:56.759Z,1014.2
2016-12-12T11:15:56.822Z,1014.15
2016-12-12T11:16:56.572Z,1014.11
2016-12-12T11:17:56.698Z,1014.09
2016-12-12T11:18:56.578Z,1014.14
2016-12-12T11:19:56.518Z,1014.13
2016-12-12T11:20:56.723Z,1014.17
2016-12-12T11:21:56.519Z,1014.16
2016-12-12T11:22:56.763Z,1014.21
2016-12-12T11:23:56.695Z,1014.26
2016-12-12T11:24:56.693Z,1014.28
2016-12-12T11:25:56.878Z,1014.28
2016-12-12T11:26:56.714Z,1014.24
2016-12-12T11:27:57.235Z,1014.19
2016-12-12T11:28:57.037Z,1014.21
2016-12-12T11:29:56.725Z,1014.22
2016-12-12T11:30:57.069Z,1014.15
2016-12-12T11:31:57.070Z,1014.12
2016-12-12T11:32:56.794Z,1014.17
2016-12-12T11:33:56.729Z,1014.18
2016-12-12T11:34:57.070Z,1014.19
2016-12-12T11:35:57.169Z,1014.25
2016-12-12T11:36:57.650Z,1014.28
2016-12-12T11:37:57.186Z,1014.16
2016-12-12T11:38:57.401Z,1014.21
2016-12-12T11:39:57.117Z,1014.19
2016-12-12T11:40:57.150Z,1014.16
2016-12-12T11:41:57.648Z,1014.15
2016-12-12T11:42:57.194Z,1014.18
2016-12-12T11:43:57.048Z,1014.17
2016-12-12T11:44:57.048Z,1014.12
2016-12-12T11:45:57.257Z,1014.07
2016-12-12T11:46:57.070Z,1014.05
2016-12-12T11:47:57.444Z,1014.07
2016-12-12T11:48:57.443Z,1014.06
2016-12-12T11:49:57.458Z,1014.11
2016-12-12T11:50:57.027Z,1014.07
2016-12-12T11:51:57.147Z,1014.09
2016-12-12T11:52:57.356Z,1014.08
2016-12-12T11:53:57.190Z,1014.05
2016-12-12T11:54:57.093Z,1014.06
2016-12-12T11:55:57.214Z,1014.08
2016-12-12T11:56:57.190Z,1014.07
2016-12-12T11:57:57.355Z,1014.07
2016-12-12T11:58:57.393Z,1014.12
2016-12-12T11:59:57.263Z,1014.09
2016-12-12T12:00:57.420Z,1014.05
2016-12-12T12:01:57.928Z,1014.07
2016-12-12T12:02:57.462Z,1014.04
2016-12-12T12:03:57.314Z,1014.07
2016-12-12T12:04:57.692Z,1014.05
2016-12-12T12:05:57.487Z,1014.1
2016-12-12T12:06:57.421Z,1014.06
2016-12-12T12:07:57.348Z,1014.06
2016-12-12T12:08:57.386Z,1014.1
2016-12-12T12:09:57.314Z,1014.08
2016-12-12T12:10:57.781Z,1014.09
2016-12-12T12:11:57.524Z,1014.05